Time;durP1;ratioP1;P1;durP2;ratioP2;P2;SDS_P1;SDS_P2;PMS_P1;PMS_P2;Temp;Humidity;BMP_temperature;BMP_pressure;BME280_temperature;BME280_humidity;BME280_pressure;Samples;Min_cycle;Max_cycle;Signal;HPM_P1;HPM_P2
2023/06/21 00:00:25;;;;;;;7.97;6.90;;;;;;;22.21;100.00;98775.09;5028686;28;20244;-77
2023/06/21 00:02:54;;;;;;;10.02;7.55;;;;;;;22.18;100.00;98773.56;5026097;28;20281;-77
2023/06/21 00:05:22;;;;;;;10.55;7.28;;;;;;;22.27;100.00;98764.38;5026486;28;20244;-77
2023/06/21 00:07:54;;;;;;;10.75;7.28;;;;;;;22.29;100.00;98780.38;5076238;28;20274;-77
2023/06/21 00:10:23;;;;;;;9.10;7.35;;;;;;;22.40;100.00;98771.03;5116240;28;20676;-77
2023/06/21 00:12:52;;;;;;;8.35;7.28;;;;;;;22.49;100.00;98765.38;5107535;28;20191;-77
2023/06/21 00:15:21;;;;;;;8.05;7.15;;;;;;;22.37;100.00;98774.91;5109912;28;20264;-76
2023/06/21 00:17:50;;;;;;;8.93;6.68;;;;;;;22.44;100.00;98764.25;5108721;28;20264;-77
2023/06/21 00:20:20;;;;;;;8.77;7.22;;;;;;;22.36;100.00;98765.16;5110587;28;20207;-77
2023/06/21 00:22:55;;;;;;;8.20;7.00;;;;;;;22.29;100.00;98758.81;5103304;28;20677;-77
2023/06/21 00:25:26;;;;;;;9.40;6.90;;;;;;;22.19;100.00;98771.72;5109850;28;20213;-76
2023/06/21 00:27:55;;;;;;;11.27;7.25;;;;;;;22.05;100.00;98778.72;5105217;28;20204;-76
2023/06/21 00:30:24;;;;;;;8.27;6.97;;;;;;;22.14;100.00;98766.88;5113055;28;20199;-76
2023/06/21 00:32:52;;;;;;;7.97;7.28;;;;;;;22.26;100.00;98772.66;5109761;28;20187;-76
2023/06/21 00:35:21;;;;;;;12.10;7.32;;;;;;;22.29;100.00;98769.59;5107996;28;20187;-76
2023/06/21 00:37:49;;;;;;;8.35;7.50;;;;;;;22.19;100.00;98759.06;5104731;28;20206;-76
2023/06/21 00:40:22;;;;;;;9.90;7.07;;;;;;;22.05;100.00;98754.44;5107067;28;20231;-77
2023/06/21 00:42:52;;;;;;;11.55;6.85;;;;;;;21.81;100.00;98777.06;5110274;28;20638;-76
2023/06/21 00:45:21;;;;;;;8.10;7.10;;;;;;;21.63;100.00;98773.81;5100570;28;20233;-76
2023/06/21 00:47:50;;;;;;;9.50;7.35;;;;;;;21.70;100.00;98777.44;5112569;28;20195;-76
2023/06/21 00:50:18;;;;;;;8.13;7.28;;;;;;;21.59;100.00;98772.47;5106978;28;20396;-76
2023/06/21 00:52:47;;;;;;;10.35;7.82;;;;;;;21.54;100.00;98782.97;5105758;28;20206;-76
2023/06/21 00:55:19;;;;;;;8.52;7.25;;;;;;;21.62;100.00;98786.44;5105448;28;20198;-76
2023/06/21 00:57:48;;;;;;;9.25;7.57;;;;;;;21.09;100.00;98801.47;5111191;28;20273;-75
2023/06/21 01:00:21;;;;;;;8.48;7.00;;;;;;;21.14;100.00;98809.03;5106040;28;20248;-76
2023/06/21 01:02:51;;;;;;;10.70;7.53;;;;;;;21.14;100.00;98812.56;5108023;28;20199;-76
2023/06/21 01:05:22;;;;;;;13.27;7.78;;;;;;;21.18;100.00;98818.44;5107606;28;20713;-76
2023/06/21 01:08:00;;;;;;;10.45;8.18;;;;;;;20.93;100.00;98822.22;5111165;28;20195;-76
2023/06/21 01:10:44;;;;;;;11.00;8.18;;;;;;;20.75;100.00;98823.28;5109610;28;20206;-76
2023/06/21 01:13:27;;;;;;;13.60;8.80;;;;;;;20.56;100.00;98834.44;5112237;28;20294;-76
2023/06/21 01:16:04;;;;;;;12.87;8.73;;;;;;;20.57;100.00;98830.72;5106893;28;20187;-76
2023/06/21 01:18:33;;;;;;;9.18;7.82;;;;;;;20.47;100.00;98835.44;5112316;28;20187;-76
2023/06/21 01:21:05;;;;;;;12.65;8.25;;;;;;;20.49;100.00;98842.31;5102368;28;20191;-76
2023/06/21 01:23:50;;;;;;;11.68;9.27;;;;;;;20.07;100.00;98852.34;5111904;28;20219;-76
2023/06/21 01:26:32;;;;;;;10.43;9.33;;;;;;;20.06;100.00;98847.97;5108766;28;20549;-76
2023/06/21 01:29:11;;;;;;;13.33;8.60;;;;;;;19.93;100.00;98853.84;5108828;28;20191;-76
2023/06/21 01:31:42;;;;;;;11.33;9.40;;;;;;;19.67;100.00;98880.81;5105814;28;20190;-76
2023/06/21 01:34:12;;;;;;;11.47;9.37;;;;;;;19.67;100.00;98873.59;5107120;28;20195;-77
2023/06/21 01:36:41;;;;;;;13.03;9.13;;;;;;;19.81;100.00;98879.38;5112125;28;20189;-76
2023/06/21 01:39:10;;;;;;;14.13;9.90;;;;;;;19.86;100.00;98883.22;5109391;28;20701;-77
2023/06/21 01:41:39;;;;;;;16.07;10.43;;;;;;;20.05;100.00;98884.78;5111694;28;20221;-76
2023/06/21 01:44:12;;;;;;;10.87;8.23;;;;;;;20.31;100.00;98884.66;5106062;28;20215;-77
2023/06/21 01:46:42;;;;;;;10.00;8.47;;;;;;;20.41;100.00;98873.75;5107870;28;20203;-77
2023/06/21 01:49:11;;;;;;;10.60;9.50;;;;;;;20.38;100.00;98874.91;5102659;28;20213;-76
2023/06/21 01:51:42;;;;;;;13.57;9.03;;;;;;;20.54;100.00;98864.16;5111479;28;20187;-77
2023/06/21 01:54:12;;;;;;;11.48;9.25;;;;;;;20.64;100.00;98863.16;5107118;28;20198;-76
2023/06/21 01:56:43;;;;;;;10.57;9.47;;;;;;;20.75;100.00;98860.97;5109322;28;20187;-77
2023/06/21 01:59:14;;;;;;;12.83;9.23;;;;;;;20.90;100.00;98852.19;5102089;28;20202;-76
2023/06/21 02:01:50;;;;;;;9.80;8.87;;;;;;;20.96;100.00;98865.81;5106128;28;20202;-77
2023/06/21 02:04:21;;;;;;;10.27;9.18;;;;;;;21.02;100.00;98854.34;5106035;28;20210;-77
2023/06/21 02:06:52;;;;;;;9.37;8.37;;;;;;;21.10;100.00;98858.88;5109930;28;20456;-76
2023/06/21 02:09:21;;;;;;;9.00;8.00;;;;;;;21.17;100.00;98857.19;5109289;28;20213;-77
2023/06/21 02:11:51;;;;;;;14.07;8.90;;;;;;;21.21;100.00;98855.81;5108497;28;20355;-76
2023/06/21 02:14:22;;;;;;;10.73;8.37;;;;;;;21.12;100.00;98862.22;5107609;28;20198;-77
2023/06/21 02:16:51;;;;;;;10.23;8.60;;;;;;;21.06;100.00;98853.00;5107293;28;20195;-76
2023/06/21 02:19:21;;;;;;;10.70;8.23;;;;;;;20.98;100.00;98855.72;5097634;28;20195;-77
2023/06/21 02:21:49;;;;;;;11.10;8.20;;;;;;;20.94;100.00;98856.22;5107077;28;20194;-77
2023/06/21 02:24:18;;;;;;;12.05;8.60;;;;;;;20.81;100.00;98856.75;5109912;28;20219;-76
2023/06/21 02:26:46;;;;;;;11.75;9.02;;;;;;;20.60;100.00;98861.81;5100433;28;20214;-76
2023/06/21 02:29:15;;;;;;;11.07;8.25;;;;;;;20.42;100.00;98860.09;5106793;28;20213;-76
2023/06/21 02:31:45;;;;;;;13.05;8.95;;;;;;;20.38;100.00;98868.69;5098139;28;20207;-76
2023/06/21 02:34:13;;;;;;;12.82;9.32;;;;;;;20.40;100.00;98867.50;5109178;28;20278;-77
2023/06/21 02:36:47;;;;;;;10.85;9.02;;;;;;;20.44;100.00;98870.72;5105771;28;20217;-76
2023/06/21 02:39:17;;;;;;;11.15;9.07;;;;;;;20.08;100.00;98872.88;5118215;27;20237;-77
2023/06/21 02:41:45;;;;;;;11.82;9.40;;;;;;;20.13;100.00;98876.72;5125148;27;20194;-76
2023/06/21 02:44:13;;;;;;;11.82;8.85;;;;;;;20.25;100.00;98882.63;5060825;28;20235;-77
2023/06/21 02:46:42;;;;;;;11.80;8.43;;;;;;;20.41;100.00;98879.13;5063596;28;20192;-76
2023/06/21 02:49:11;;;;;;;10.43;8.77;;;;;;;20.65;100.00;98883.69;5061664;28;20227;-76
2023/06/21 02:51:40;;;;;;;12.52;8.38;;;;;;;20.56;100.00;98882.88;5061924;28;20206;-77
2023/06/21 02:54:08;;;;;;;9.93;8.80;;;;;;;20.57;100.00;98877.31;5059525;28;20192;-76
2023/06/21 02:56:37;;;;;;;11.02;9.07;;;;;;;20.61;100.00;98888.56;5064579;28;20273;-77
2023/06/21 02:59:05;;;;;;;12.27;8.90;;;;;;;20.67;100.00;98885.22;5061306;28;20246;-77
2023/06/21 03:01:33;;;;;;;9.65;8.02;;;;;;;20.81;100.00;98886.38;5070043;28;20267;-77
2023/06/21 03:04:02;;;;;;;10.48;7.43;;;;;;;20.46;100.00;98893.78;5126628;27;20197;-77
2023/06/21 03:06:33;;;;;;;12.82;8.50;;;;;;;20.30;100.00;98899.97;5126151;27;20656;-76
2023/06/21 03:09:03;;;;;;;11.75;8.02;;;;;;;20.27;100.00;98899.47;5124926;27;20197;-76
2023/06/21 03:11:32;;;;;;;8.35;7.40;;;;;;;20.31;100.00;98895.41;5124856;27;20652;-77
2023/06/21 03:14:00;;;;;;;11.10;8.23;;;;;;;20.34;100.00;98892.38;5066645;28;20300;-76
2023/06/21 03:16:28;;;;;;;12.00;8.25;;;;;;;20.52;100.00;98887.72;5057174;28;20201;-77
2023/06/21 03:18:57;;;;;;;11.00;8.10;;;;;;;20.60;100.00;98891.44;5066021;28;20196;-77
2023/06/21 03:21:25;;;;;;;14.00;8.75;;;;;;;20.41;100.00;98896.09;5060389;28;20200;-77
2023/06/21 03:23:55;;;;;;;11.18;8.57;;;;;;;20.19;100.00;98896.75;5063243;28;20200;-77
2023/06/21 03:26:25;;;;;;;11.52;8.73;;;;;;;20.21;100.00;98897.44;5063564;28;20269;-77
2023/06/21 03:28:57;;;;;;;13.57;8.87;;;;;;;20.14;100.00;98904.47;5061914;28;20295;-77
2023/06/21 03:31:26;;;;;;;11.17;8.53;;;;;;;19.95;100.00;98906.44;5080985;27;20231;-77
2023/06/21 03:33:54;;;;;;;10.47;8.30;;;;;;;19.95;100.00;98914.50;5125640;27;20197;-77
2023/06/21 03:36:23;;;;;;;10.97;8.87;;;;;;;19.95;100.00;98916.34;5099381;27;20269;-76
2023/06/21 03:38:52;;;;;;;11.10;8.57;;;;;;;19.78;100.00;98926.19;5121571;27;20253;-77
2023/06/21 03:41:22;;;;;;;10.63;8.77;;;;;;;19.65;100.00;98937.41;5117059;28;20274;-76
2023/06/21 03:43:51;;;;;;;9.80;8.80;;;;;;;19.77;100.00;98948.72;5113378;28;20187;-77
2023/06/21 03:46:19;;;;;;;10.50;8.80;;;;;;;19.91;100.00;98950.81;5106230;28;20302;-76
2023/06/21 03:48:51;;;;;;;13.90;8.75;;;;;;;19.85;100.00;98950.59;5103791;28;20195;-76
2023/06/21 03:51:20;;;;;;;10.13;8.83;;;;;;;19.90;100.00;98959.88;5048090;28;20205;-77
2023/06/21 03:53:48;;;;;;;10.27;9.17;;;;;;;20.11;100.00;98956.75;5048585;28;20669;-76
2023/06/21 03:56:18;;;;;;;10.65;9.15;;;;;;;20.22;100.00;98953.75;5046473;28;20196;-77
2023/06/21 03:58:48;;;;;;;12.03;9.80;;;;;;;20.07;100.00;98946.47;5047612;28;20201;-77
2023/06/21 04:01:16;;;;;;;10.43;9.40;;;;;;;20.30;100.00;98959.16;5046801;28;20197;-77
2023/06/21 04:03:45;;;;;;;11.48;9.43;;;;;;;20.28;100.00;98965.69;5042930;28;20193;-77
2023/06/21 04:06:13;;;;;;;14.55;9.27;;;;;;;20.39;100.00;98973.47;5044073;28;20228;-77
2023/06/21 04:08:43;;;;;;;10.02;8.68;;;;;;;19.97;100.00;98974.31;5013753;28;20197;-76
2023/06/21 04:11:12;;;;;;;13.38;9.30;;;;;;;19.94;100.00;98974.66;5045950;28;20684;-77
2023/06/21 04:13:40;;;;;;;13.63;9.55;;;;;;;20.11;100.00;98974.72;5049115;28;20209;-78
2023/06/21 04:16:10;;;;;;;14.23;10.15;;;;;;;19.47;100.00;98984.97;5046845;28;20361;-77
2023/06/21 04:18:39;;;;;;;13.93;10.33;;;;;;;19.31;100.00;98990.28;5047397;28;20193;-77
2023/06/21 04:21:08;;;;;;;14.93;11.00;;;;;;;19.45;100.00;99000.41;5049237;28;20201;-77
2023/06/21 04:23:36;;;;;;;13.93;10.00;;;;;;;19.27;100.00;99013.06;5048761;28;20197;-77
2023/06/21 04:26:06;;;;;;;13.03;10.27;;;;;;;19.25;100.00;99021.28;5055678;28;20246;-77
2023/06/21 04:28:34;;;;;;;13.20;10.00;;;;;;;19.47;100.00;99013.69;5112982;28;20234;-77
2023/06/21 04:31:03;;;;;;;14.97;11.40;;;;;;;19.83;100.00;99009.91;5109259;28;20202;-77
2023/06/21 04:33:35;;;;;;;13.73;10.23;;;;;;;20.11;100.00;99007.84;5076025;28;20195;-77
2023/06/21 04:36:04;;;;;;;15.60;11.07;;;;;;;20.28;100.00;98997.97;5106167;28;20195;-76
2023/06/21 04:38:33;;;;;;;17.27;10.83;;;;;;;20.34;100.00;98999.16;5025805;28;20227;-77
2023/06/21 04:41:01;;;;;;;14.73;10.75;;;;;;;20.44;100.00;98999.88;5111106;28;20187;-77
2023/06/21 04:43:31;;;;;;;11.00;9.90;;;;;;;20.56;100.00;99004.81;5110362;28;20205;-78
2023/06/21 04:46:01;;;;;;;13.40;10.27;;;;;;;20.66;100.00;99006.50;5104272;28;20222;-76
2023/06/21 04:48:30;;;;;;;13.77;9.93;;;;;;;20.81;100.00;99013.75;5106243;28;20183;-76
2023/06/21 04:51:00;;;;;;;11.88;10.18;;;;;;;20.70;100.00;99015.91;5110624;28;20199;-76
2023/06/21 04:53:29;;;;;;;12.93;10.95;;;;;;;20.68;100.00;99021.47;5105049;28;20199;-76
2023/06/21 04:55:58;;;;;;;15.68;10.70;;;;;;;20.76;100.00;99016.09;5111603;28;20191;-76
2023/06/21 04:58:27;;;;;;;16.40;11.77;;;;;;;20.76;100.00;99023.34;5115544;28;20338;-77
2023/06/21 05:00:56;;;;;;;17.02;11.80;;;;;;;20.82;100.00;99022.66;5111587;28;20223;-76
2023/06/21 05:03:26;;;;;;;16.35;11.88;;;;;;;20.89;100.00;99023.69;5111709;28;20555;-76
2023/06/21 05:05:54;;;;;;;13.88;11.52;;;;;;;20.89;100.00;99030.91;5109827;28;20214;-77
2023/06/21 05:08:24;;;;;;;14.02;11.20;;;;;;;21.00;100.00;99027.88;5103642;28;20249;-77
2023/06/21 05:10:53;;;;;;;12.85;11.00;;;;;;;21.01;100.00;99037.66;5109596;28;20236;-77
2023/06/21 05:13:21;;;;;;;18.60;11.18;;;;;;;21.07;100.00;99055.84;5108552;28;20684;-76
2023/06/21 05:15:50;;;;;;;15.70;10.57;;;;;;;20.98;100.00;99060.38;5107665;28;20191;-76
2023/06/21 05:18:19;;;;;;;17.65;11.77;;;;;;;21.06;100.00;99062.25;5111909;28;20616;-76
2023/06/21 05:20:48;;;;;;;14.48;10.60;;;;;;;21.19;100.00;99069.81;5071048;28;20239;-76
2023/06/21 05:23:19;;;;;;;16.88;10.55;;;;;;;21.31;100.00;99065.78;5064885;28;20204;-78
2023/06/21 05:25:49;;;;;;;15.40;11.23;;;;;;;21.38;100.00;99054.19;5069455;28;20224;-78
2023/06/21 05:28:17;;;;;;;18.75;11.60;;;;;;;21.25;100.00;99058.38;5069640;28;20189;-78
2023/06/21 05:30:46;;;;;;;13.45;11.18;;;;;;;21.60;100.00;99054.47;5065179;28;20664;-78
2023/06/21 05:33:14;;;;;;;12.57;11.23;;;;;;;21.43;100.00;99056.38;5066913;28;20262;-79
2023/06/21 05:35:43;;;;;;;13.55;10.48;;;;;;;21.48;100.00;99055.84;5064591;28;20290;-78
2023/06/21 05:38:11;;;;;;;12.63;9.93;;;;;;;21.81;100.00;99060.19;5068398;28;20208;-78
2023/06/21 05:40:42;;;;;;;15.52;10.40;;;;;;;21.70;100.00;99055.13;5064216;28;20211;-78
2023/06/21 05:43:11;;;;;;;12.00;10.80;;;;;;;21.62;100.00;99055.19;5066705;28;20203;-79
2023/06/21 05:45:40;;;;;;;21.48;11.80;;;;;;;21.42;100.00;99058.25;5085052;28;20206;-78
2023/06/21 05:48:08;;;;;;;14.77;10.88;;;;;;;21.60;100.00;99065.25;5103741;28;20199;-78
2023/06/21 05:50:36;;;;;;;15.63;11.10;;;;;;;21.74;100.00;99063.75;5107416;28;20187;-78
2023/06/21 05:53:04;;;;;;;13.60;9.88;;;;;;;21.73;100.00;99065.59;5100780;28;20199;-78
2023/06/21 05:55:33;;;;;;;15.02;10.15;;;;;;;21.72;100.00;99074.72;5106927;28;20195;-78
2023/06/21 05:58:01;;;;;;;15.85;10.65;;;;;;;21.94;100.00;99070.44;5101929;28;20207;-78
2023/06/21 06:00:31;;;;;;;13.50;10.05;;;;;;;21.90;100.00;99064.53;5111535;28;20221;-78
2023/06/21 06:03:01;;;;;;;12.05;10.10;;;;;;;21.87;100.00;99072.13;5105081;28;20197;-78
2023/06/21 06:05:30;;;;;;;11.48;10.23;;;;;;;21.84;100.00;99080.56;5109659;28;20202;-78
2023/06/21 06:07:59;;;;;;;12.57;10.35;;;;;;;21.95;100.00;99097.22;5109458;28;20211;-78
2023/06/21 06:10:28;;;;;;;14.27;9.87;;;;;;;21.83;100.00;99098.59;5106994;28;20225;-78
2023/06/21 06:12:57;;;;;;;11.40;9.38;;;;;;;22.08;100.00;99095.88;5107913;28;20187;-78
2023/06/21 06:15:25;;;;;;;12.82;8.93;;;;;;;22.27;100.00;99092.78;5110764;28;20270;-78
2023/06/21 06:17:57;;;;;;;15.35;9.48;;;;;;;22.28;100.00;99100.69;5102930;28;20281;-79
2023/06/21 06:20:27;;;;;;;12.82;9.57;;;;;;;22.36;100.00;99115.16;5102819;28;20202;-78
2023/06/21 06:22:55;;;;;;;11.45;8.65;;;;;;;22.22;100.00;99114.91;5047763;28;20200;-78
2023/06/21 06:25:24;;;;;;;15.27;9.27;;;;;;;22.41;100.00;99099.31;5042559;28;20197;-78
2023/06/21 06:27:52;;;;;;;13.10;9.38;;;;;;;22.54;100.00;99107.69;5044189;28;20225;-78
2023/06/21 06:30:20;;;;;;;14.50;10.00;;;;;;;22.57;100.00;99104.63;5048366;28;20251;-78
2023/06/21 06:32:49;;;;;;;14.02;9.13;;;;;;;22.92;100.00;99097.88;5009967;28;20262;-77
2023/06/21 06:35:19;;;;;;;12.02;8.65;;;;;;;23.02;100.00;99100.34;5042904;28;20205;-77
2023/06/21 06:37:48;;;;;;;15.13;8.45;;;;;;;23.25;100.00;99087.66;5046016;28;20666;-76
2023/06/21 06:40:16;;;;;;;15.32;8.55;;;;;;;23.26;100.00;99086.66;5067410;28;20234;-76
2023/06/21 06:42:47;;;;;;;12.88;8.65;;;;;;;23.45;100.00;99096.16;5099771;28;20333;-76
2023/06/21 06:45:15;;;;;;;10.52;8.32;;;;;;;23.54;100.00;99092.31;5106232;28;20195;-76
2023/06/21 06:47:44;;;;;;;12.35;7.45;;;;;;;23.81;100.00;99090.06;5028174;28;20222;-77
2023/06/21 06:50:12;;;;;;;7.65;6.47;;;;;;;23.84;100.00;99087.03;5026792;28;20245;-77
2023/06/21 06:52:43;;;;;;;10.95;6.32;;;;;;;24.04;100.00;99098.97;5021366;28;20190;-76
2023/06/21 06:55:12;;;;;;;11.02;7.10;;;;;;;24.09;100.00;99103.81;5024613;28;20190;-76
2023/06/21 06:57:41;;;;;;;11.70;7.80;;;;;;;23.96;100.00;99090.94;5022173;28;20205;-76
2023/06/21 07:00:29;;;;;;;8.45;6.35;;;;;;;23.88;100.00;99089.16;5030760;28;20240;-77
2023/06/21 07:02:58;;;;;;;9.15;6.97;;;;;;;23.94;100.00;99090.28;5019607;28;20197;-77
2023/06/21 07:05:27;;;;;;;7.85;6.50;;;;;;;23.99;100.00;99093.28;5047105;28;20234;-76
2023/06/21 07:07:57;;;;;;;8.48;6.40;;;;;;;23.95;100.00;99090.09;5105969;28;20226;-77
2023/06/21 07:10:26;;;;;;;9.00;6.30;;;;;;;24.04;100.00;99076.50;5110600;28;20226;-79
2023/06/21 07:12:55;;;;;;;9.15;6.47;;;;;;;23.91;100.00;99075.25;5104606;28;20183;-77
2023/06/21 07:15:23;;;;;;;10.05;6.55;;;;;;;24.01;100.00;99079.53;5110281;28;20206;-78
2023/06/21 07:17:53;;;;;;;9.02;6.72;;;;;;;23.99;100.00;99085.16;5101291;28;20266;-77
2023/06/21 07:20:22;;;;;;;11.48;6.55;;;;;;;23.98;100.00;99083.47;5108497;28;20195;-76
2023/06/21 07:22:50;;;;;;;8.40;7.18;;;;;;;23.19;100.00;99092.97;5110201;28;20191;-76
2023/06/21 07:25:20;;;;;;;9.15;6.90;;;;;;;23.47;100.00;99085.97;5100334;28;20199;-76
2023/06/21 07:27:49;;;;;;;10.38;7.63;;;;;;;23.53;100.00;99089.81;5107259;28;20222;-78
2023/06/21 07:30:18;;;;;;;9.88;6.95;;;;;;;23.61;100.00;99084.34;5106455;28;20191;-79
2023/06/21 07:32:47;;;;;;;10.15;7.40;;;;;;;23.67;100.00;99087.19;5112874;28;20199;-79
2023/06/21 07:35:17;;;;;;;8.90;7.03;;;;;;;23.62;100.00;99086.88;5108797;28;20188;-76
2023/06/21 07:37:46;;;;;;;10.60;7.57;;;;;;;23.69;100.00;99093.22;5103805;28;20187;-76
2023/06/21 07:40:15;;;;;;;10.18;7.50;;;;;;;23.89;100.00;99092.69;5127146;27;20415;-76
2023/06/21 07:42:45;;;;;;;11.43;7.28;;;;;;;23.59;100.00;99094.53;5125922;27;20202;-77
2023/06/21 07:45:13;;;;;;;9.88;7.88;;;;;;;23.63;100.00;99099.38;5123131;27;20198;-76
2023/06/21 07:47:41;;;;;;;11.60;8.00;;;;;;;22.89;100.00;99102.81;5125893;27;20259;-78
2023/06/21 07:50:10;;;;;;;10.55;7.55;;;;;;;23.37;100.00;99109.72;5132223;27;20224;-78
2023/06/21 07:52:50;;;;;;;10.93;7.25;;;;;;;23.74;100.00;99108.06;5067932;28;20576;-79
2023/06/21 07:55:18;;;;;;;11.07;7.93;;;;;;;23.94;100.00;99111.94;5060566;28;20196;-78
2023/06/21 07:57:48;;;;;;;9.65;7.57;;;;;;;23.84;100.00;99114.06;5063721;28;20267;-78
2023/06/21 08:00:17;;;;;;;11.48;7.65;;;;;;;23.73;100.00;99117.19;5061764;28;20189;-78
2023/06/21 08:02:49;;;;;;;10.20;7.82;;;;;;;23.34;100.00;99116.31;5063059;28;20559;-78
2023/06/21 08:05:18;;;;;;;11.85;7.13;;;;;;;23.73;100.00;99128.03;5059923;28;20207;-78
2023/06/21 08:07:47;;;;;;;9.93;7.53;;;;;;;23.80;100.00;99126.28;5058404;28;20220;-78
2023/06/21 08:10:16;;;;;;;8.13;7.07;;;;;;;24.00;100.00;99124.72;5061203;28;20284;-78
2023/06/21 08:12:45;;;;;;;8.88;7.07;;;;;;;23.90;100.00;99127.69;5062844;28;20197;-78
2023/06/21 08:15:15;;;;;;;11.77;7.25;;;;;;;23.87;100.00;99127.22;5067439;28;20221;-78
2023/06/21 08:17:44;;;;;;;8.02;7.22;;;;;;;24.12;100.00;99125.94;5112637;27;20559;-76
2023/06/21 08:20:13;;;;;;;10.73;7.28;;;;;;;23.79;100.00;99122.72;5128938;27;20190;-76
2023/06/21 08:22:42;;;;;;;12.38;7.93;;;;;;;23.14;100.00;99128.63;5126049;27;20683;-78
2023/06/21 08:25:10;;;;;;;9.90;7.88;;;;;;;23.68;100.00;99121.31;5128456;27;20672;-76
2023/06/21 08:27:39;;;;;;;8.70;7.85;;;;;;;23.33;100.00;99121.91;5127682;27;20214;-77
2023/06/21 08:30:10;;;;;;;14.40;7.50;;;;;;;24.08;100.00;99118.38;5127408;27;20212;-77
2023/06/21 08:32:43;;;;;;;11.00;7.70;;;;;;;24.46;100.00;99114.56;5064059;28;20196;-77
2023/06/21 08:35:11;;;;;;;10.23;6.50;;;;;;;24.89;100.00;99111.97;5063634;28;20200;-77
2023/06/21 08:37:40;;;;;;;9.32;7.07;;;;;;;24.74;100.00;99106.59;5061943;28;20219;-76
2023/06/21 08:40:10;;;;;;;8.07;6.50;;;;;;;25.01;100.00;99086.06;5063884;28;20231;-77
2023/06/21 08:42:38;;;;;;;9.02;7.55;;;;;;;25.11;100.00;99092.03;4987978;28;20286;-77
2023/06/21 08:45:07;;;;;;;7.68;6.95;;;;;;;25.26;100.00;99093.81;4980918;28;20207;-77
2023/06/21 08:47:37;;;;;;;7.03;6.32;;;;;;;24.89;100.00;99095.69;4989699;28;20225;-77
2023/06/21 08:50:11;;;;;;;7.38;6.50;;;;;;;24.22;100.00;99093.16;4983444;28;20232;-77
2023/06/21 08:52:43;;;;;;;7.65;6.68;;;;;;;24.17;100.00;99092.91;4987649;28;20228;-77
2023/06/21 08:55:14;;;;;;;9.50;6.68;;;;;;;23.75;100.00;99109.78;4986162;28;20207;-76
2023/06/21 08:57:49;;;;;;;7.60;6.40;;;;;;;23.74;100.00;99099.94;5000008;28;20194;-76
2023/06/21 09:00:22;;;;;;;9.85;6.82;;;;;;;24.08;100.00;99091.31;5033778;28;20191;-77
2023/06/21 09:02:57;;;;;;;11.63;6.22;;;;;;;24.68;100.00;99090.25;5102400;28;20217;-76
2023/06/21 09:05:35;;;;;;;7.80;6.47;;;;;;;24.81;100.00;99088.56;5112667;28;20190;-76
2023/06/21 09:08:05;;;;;;;6.28;5.68;;;;;;;24.91;100.00;99096.38;5109168;28;20215;-76
2023/06/21 09:10:39;;;;;;;6.38;5.57;;;;;;;24.68;100.00;99096.50;5107933;28;20199;-77
2023/06/21 09:13:08;;;;;;;9.32;6.32;;;;;;;24.67;100.00;99088.56;5104073;28;20203;-76
2023/06/21 09:15:38;;;;;;;8.07;5.90;;;;;;;24.57;100.00;99094.28;5105156;28;20202;-76
2023/06/21 09:18:07;;;;;;;6.95;5.50;;;;;;;25.24;100.00;99095.91;5100146;28;20218;-77
2023/06/21 09:20:39;;;;;;;7.95;5.35;;;;;;;25.48;100.00;99095.50;5103977;28;20281;-76
2023/06/21 09:23:07;;;;;;;6.43;5.50;;;;;;;25.67;100.00;99080.41;5103669;28;20212;-77
2023/06/21 09:25:36;;;;;;;9.57;5.90;;;;;;;25.25;100.00;99103.00;5060502;28;20656;-76
2023/06/21 09:28:05;;;;;;;8.07;5.78;;;;;;;25.24;100.00;99094.03;5100265;28;20211;-76
2023/06/21 09:30:33;;;;;;;6.45;5.80;;;;;;;24.51;100.00;99104.03;5109284;28;20191;-77
2023/06/21 09:33:06;;;;;;;10.85;5.97;;;;;;;25.11;100.00;99102.03;5110008;28;20412;-77
2023/06/21 09:35:38;;;;;;;6.47;5.03;;;;;;;25.32;100.00;99114.75;5105321;28;20191;-77
2023/06/21 09:38:22;;;;;;;6.15;5.25;;;;;;;25.27;100.00;99107.19;5111673;28;20279;-77
2023/06/21 09:40:50;;;;;;;5.80;5.20;;;;;;;25.27;100.00;99117.19;5108064;28;20616;-77
2023/06/21 09:43:20;;;;;;;5.95;5.43;;;;;;;25.26;100.00;99119.06;5102980;28;20273;-77
2023/06/21 09:46:05;;;;;;;8.27;5.05;;;;;;;25.24;100.00;99114.88;5105252;28;20210;-76
2023/06/21 09:48:37;;;;;;;7.93;5.40;;;;;;;25.44;100.00;99110.47;5104663;28;20219;-77
2023/06/21 09:51:10;;;;;;;7.28;5.68;;;;;;;25.56;100.00;99119.75;5109072;28;20194;-77
2023/06/21 09:53:44;;;;;;;6.13;5.53;;;;;;;25.85;100.00;99120.66;5103256;28;20205;-77
2023/06/21 09:56:17;;;;;;;10.15;5.25;;;;;;;26.02;100.00;99127.47;5114330;28;20637;-77
2023/06/21 09:58:47;;;;;;;5.38;4.88;;;;;;;26.40;100.00;99135.25;5104663;28;20259;-77
2023/06/21 10:01:16;;;;;;;6.43;5.05;;;;;;;26.13;100.00;99128.78;5106013;28;20199;-77
2023/06/21 10:03:45;;;;;;;5.55;5.03;;;;;;;26.68;100.00;99143.34;5105995;28;20195;-77
2023/06/21 10:06:17;;;;;;;5.47;4.97;;;;;;;26.57;100.00;99138.50;5110768;28;20197;-77
2023/06/21 10:08:49;;;;;;;5.90;5.05;;;;;;;25.90;100.00;99156.19;5107581;28;20218;-77
2023/06/21 10:11:18;;;;;;;8.15;5.25;;;;;;;26.01;100.00;99152.09;5107947;28;20693;-76
2023/06/21 10:13:48;;;;;;;7.72;5.20;;;;;;;25.57;100.00;99156.72;5105118;28;20194;-76
2023/06/21 10:16:19;;;;;;;6.38;5.07;;;;;;;25.83;100.00;99155.31;5110111;28;20187;-77
2023/06/21 10:18:48;;;;;;;6.43;5.72;;;;;;;25.66;100.00;99157.41;5106741;28;20197;-76
2023/06/21 10:21:21;;;;;;;6.28;5.68;;;;;;;25.58;100.00;99158.41;5106196;28;20199;-77
2023/06/21 10:23:51;;;;;;;6.07;4.90;;;;;;;25.75;100.00;99158.16;5110000;28;20191;-77
2023/06/21 10:26:21;;;;;;;9.07;5.70;;;;;;;26.04;100.00;99152.53;5109213;28;20278;-76
2023/06/21 10:28:56;;;;;;;9.35;5.32;;;;;;;25.61;100.00;99146.31;5101338;28;20215;-77
2023/06/21 10:31:29;;;;;;;7.72;5.97;;;;;;;25.91;100.00;99144.31;5105261;28;20199;-77
2023/06/21 10:34:06;;;;;;;6.55;5.85;;;;;;;27.02;100.00;99134.25;5069112;28;20198;-76
2023/06/21 10:36:37;;;;;;;6.18;5.03;;;;;;;27.03;100.00;99139.56;5060910;28;20197;-78
2023/06/21 10:39:10;;;;;;;6.78;5.38;;;;;;;27.52;100.00;99132.09;5077310;28;20220;-76
2023/06/21 10:41:40;;;;;;;6.43;5.45;;;;;;;28.04;100.00;99134.00;5087945;28;20214;-77
2023/06/21 10:44:09;;;;;;;8.32;5.50;;;;;;;27.57;100.00;99135.03;5084645;28;20198;-77
2023/06/21 10:46:41;;;;;;;8.80;5.82;;;;;;;26.55;100.00;99140.56;5045481;28;20185;-77
2023/06/21 10:49:11;;;;;;;6.10;5.50;;;;;;;26.82;100.00;99145.06;5043266;28;20300;-77
2023/06/21 10:51:43;;;;;;;5.88;5.28;;;;;;;27.22;100.00;99143.38;5056838;28;20196;-77
2023/06/21 10:54:13;;;;;;;5.75;5.25;;;;;;;27.84;100.00;99144.91;5084058;28;20223;-77
2023/06/21 10:56:42;;;;;;;7.43;5.47;;;;;;;27.27;100.00;99151.72;5083535;28;20196;-77
2023/06/21 10:59:12;;;;;;;7.63;5.47;;;;;;;26.34;100.00;99152.31;5085513;28;20192;-77
2023/06/21 11:01:42;;;;;;;7.20;5.20;;;;;;;27.29;100.00;99149.63;5086780;28;20206;-77
2023/06/21 11:04:11;;;;;;;6.22;5.25;;;;;;;26.53;100.00;99154.34;5094385;27;20190;-76
2023/06/21 11:06:43;;;;;;;6.10;5.00;;;;;;;26.89;93.06;99159.53;5128205;27;20190;-77
2023/06/21 11:09:14;;;;;;;5.20;4.70;;;;;;;28.07;85.69;99159.97;5124920;27;20214;-77
2023/06/21 11:11:50;;;;;;;5.88;4.65;;;;;;;28.25;77.68;99157.44;5129045;27;20657;-77
2023/06/21 11:14:23;;;;;;;5.28;4.80;;;;;;;27.52;81.55;99146.56;5133645;27;20190;-77
2023/06/21 11:17:06;;;;;;;7.35;5.00;;;;;;;27.48;82.24;99147.16;5126512;27;20194;-76
2023/06/21 11:19:37;;;;;;;5.85;5.18;;;;;;;27.31;81.97;99153.00;5127501;27;20247;-76
2023/06/21 11:22:19;;;;;;;5.72;5.13;;;;;;;27.48;86.22;99147.16;5129999;27;20287;-77
2023/06/21 11:24:52;;;;;;;6.25;5.00;;;;;;;27.58;88.32;99144.88;5122148;28;20198;-76
2023/06/21 11:27:22;;;;;;;5.85;5.25;;;;;;;27.78;85.28;99153.91;5122908;28;20664;-77
2023/06/21 11:29:59;;;;;;;5.55;5.00;;;;;;;28.22;81.29;99145.09;5125372;28;20734;-77
2023/06/21 11:32:30;;;;;;;6.20;5.60;;;;;;;28.05;79.58;99148.47;5125624;28;20204;-77